Time;durP1;ratioP1;P1;durP2;ratioP2;P2;SDS_P1;SDS_P2;PMS_P1;PMS_P2;Temp;Humidity;BMP_temperature;BMP_pressure;BME280_temperature;BME280_humidity;BME280_pressure;Samples;Min_cycle;Max_cycle;Signal;HPM_P1;HPM_P2
2023/10/21 00:00:46;;;;;;;36.80;5.97;;;18.30;99.90;;;;;;4373866;28;658305;-68
2023/10/21 00:03:34;;;;;;;22.63;5.20;;;18.40;99.90;;;;;;4355631;28;657485;-68
2023/10/21 00:06:22;;;;;;;33.60;6.03;;;18.40;99.90;;;;;;4375360;28;657733;-68
2023/10/21 00:09:09;;;;;;;26.80;5.77;;;18.30;99.90;;;;;;4358144;28;659011;-67
2023/10/21 00:11:56;;;;;;;39.17;6.83;;;18.30;99.90;;;;;;4375379;28;657580;-67
2023/10/21 00:14:43;;;;;;;29.87;6.20;;;18.20;99.90;;;;;;4354639;28;658011;-67
2023/10/21 00:17:30;;;;;;;34.43;5.93;;;18.10;99.90;;;;;;4372815;28;657775;-68
2023/10/21 00:20:19;;;;;;;25.40;5.47;;;18.00;99.90;;;;;;4358468;28;658622;-67
2023/10/21 00:23:06;;;;;;;28.07;5.47;;;17.90;99.90;;;;;;4376384;28;657850;-68
2023/10/21 00:25:54;;;;;;;40.43;5.70;;;17.80;99.90;;;;;;4354299;28;657668;-68
2023/10/21 00:28:41;;;;;;;27.17;5.27;;;17.70;99.90;;;;;;4372965;28;658713;-68
2023/10/21 00:31:28;;;;;;;35.80;5.57;;;17.70;99.90;;;;;;4359622;28;657869;-68
2023/10/21 00:34:15;;;;;;;24.97;5.80;;;17.40;99.90;;;;;;4372225;28;658439;-68
2023/10/21 00:37:04;;;;;;;23.60;5.40;;;17.30;99.90;;;;;;4355210;28;657295;-68
2023/10/21 00:39:51;;;;;;;32.33;6.27;;;17.30;99.90;;;;;;4374812;28;657403;-68
2023/10/21 00:42:38;;;;;;;33.57;6.03;;;17.30;99.90;;;;;;4358515;28;657745;-68
2023/10/21 00:45:26;;;;;;;30.23;5.90;;;17.20;99.90;;;;;;4377930;28;660352;-67
2023/10/21 00:48:13;;;;;;;30.07;5.87;;;17.10;99.90;;;;;;4356527;28;658882;-67
2023/10/21 00:51:00;;;;;;;29.90;5.57;;;17.10;99.90;;;;;;4373553;28;659078;-67
2023/10/21 00:53:49;;;;;;;35.43;5.83;;;17.00;99.90;;;;;;4357606;28;657470;-67
2023/10/21 00:56:36;;;;;;;22.17;5.47;;;17.00;99.90;;;;;;4375652;28;657898;-67
2023/10/21 00:59:23;;;;;;;31.53;6.13;;;16.90;99.90;;;;;;4352755;28;657592;-68
2023/10/21 01:02:12;;;;;;;28.77;6.37;;;16.90;99.90;;;;;;4374543;28;657922;-67
2023/10/21 01:05:00;;;;;;;28.50;5.90;;;16.80;99.90;;;;;;4354860;28;657946;-67
2023/10/21 01:07:47;;;;;;;27.43;5.33;;;16.80;99.90;;;;;;4375655;28;657903;-67
2023/10/21 01:10:35;;;;;;;35.83;5.07;;;17.10;99.90;;;;;;4356086;28;660256;-68
2023/10/21 01:13:22;;;;;;;30.08;5.00;;;17.60;99.90;;;;;;4353612;28;657861;-68
2023/10/21 01:16:10;;;;;;;34.60;5.67;;;17.90;99.90;;;;;;4377272;28;657793;-68
2023/10/21 01:18:58;;;;;;;33.10;4.90;;;18.50;99.90;;;;;;4369684;28;657376;-68
2023/10/21 01:21:46;;;;;;;32.70;5.67;;;18.80;99.90;;;;;;4372167;28;657483;-67
2023/10/21 01:24:34;;;;;;;34.70;4.97;;;19.00;99.90;;;;;;4351545;28;657535;-67
2023/10/21 01:27:21;;;;;;;25.17;5.70;;;19.00;99.90;;;;;;4373955;28;657897;-67
2023/10/21 01:30:11;;;;;;;32.27;5.43;;;18.80;99.90;;;;;;4351250;28;658422;-67
2023/10/21 01:32:58;;;;;;;38.00;5.73;;;18.60;99.90;;;;;;4354147;28;658017;-67
2023/10/21 01:35:45;;;;;;;25.33;5.47;;;18.40;99.90;;;;;;4382415;28;657751;-67
2023/10/21 01:38:32;;;;;;;18.07;4.40;;;18.10;99.90;;;;;;4353640;28;657825;-68
2023/10/21 01:41:21;;;;;;;21.77;5.27;;;18.00;99.90;;;;;;4377291;28;658497;-67
2023/10/21 01:44:08;;;;;;;29.90;4.93;;;17.80;99.90;;;;;;4359803;28;657512;-67
2023/10/21 01:46:55;;;;;;;21.37;4.90;;;17.50;99.90;;;;;;4375672;28;658636;-67
2023/10/21 01:49:43;;;;;;;30.80;5.23;;;17.30;99.90;;;;;;4357130;28;657615;-67
2023/10/21 01:52:30;;;;;;;28.53;5.63;;;17.30;99.90;;;;;;4374099;28;659455;-68
2023/10/21 01:55:17;;;;;;;34.20;5.70;;;17.30;99.90;;;;;;4358082;28;658793;-67
2023/10/21 01:58:06;;;;;;;25.20;5.20;;;17.20;99.90;;;;;;4377671;28;658550;-68
2023/10/21 02:00:53;;;;;;;38.17;5.43;;;17.10;99.90;;;;;;4358145;28;658178;-68
2023/10/21 02:03:41;;;;;;;20.80;5.03;;;16.90;99.90;;;;;;4383197;28;658816;-67
2023/10/21 02:06:28;;;;;;;26.30;5.30;;;17.00;99.90;;;;;;4355684;28;657720;-67
2023/10/21 02:09:17;;;;;;;32.63;5.03;;;16.80;99.90;;;;;;4375264;28;658854;-67
2023/10/21 02:12:04;;;;;;;28.20;6.03;;;16.80;99.90;;;;;;4360727;28;658614;-67
2023/10/21 02:14:53;;;;;;;35.27;6.40;;;16.70;99.90;;;;;;4373028;28;658486;-68
2023/10/21 02:17:40;;;;;;;22.60;5.20;;;16.60;99.90;;;;;;4353296;28;658282;-68
2023/10/21 02:20:27;;;;;;;33.63;5.57;;;16.50;99.90;;;;;;4357728;28;657649;-67
2023/10/21 02:23:15;;;;;;;32.73;6.67;;;16.50;99.90;;;;;;4379526;28;657728;-67
2023/10/21 02:26:03;;;;;;;31.23;5.37;;;16.50;99.90;;;;;;4374313;28;657663;-68
2023/10/21 02:28:50;;;;;;;33.73;5.10;;;16.50;99.90;;;;;;4354267;28;658665;-67
2023/10/21 02:31:39;;;;;;;30.57;5.77;;;16.50;99.90;;;;;;4355368;28;657560;-68
2023/10/21 02:34:26;;;;;;;31.47;6.80;;;16.50;99.90;;;;;;4370881;28;658693;-69
2023/10/21 02:37:13;;;;;;;35.70;6.57;;;16.40;99.90;;;;;;4359765;28;657685;-68
2023/10/21 02:40:01;;;;;;;33.37;6.67;;;16.40;99.90;;;;;;4376578;28;658301;-69
2023/10/21 02:42:48;;;;;;;22.07;6.20;;;16.30;99.90;;;;;;4362209;28;657786;-68
2023/10/21 02:45:35;;;;;;;33.63;7.20;;;16.10;99.90;;;;;;4365201;28;657867;-68
2023/10/21 02:48:24;;;;;;;35.27;7.03;;;16.00;99.90;;;;;;4353169;28;657857;-68
2023/10/21 02:51:12;;;;;;;34.73;7.93;;;16.00;99.90;;;;;;4374753;28;657411;-68
2023/10/21 02:54:00;;;;;;;42.90;7.82;;;16.00;99.90;;;;;;4361184;28;658026;-68
2023/10/21 02:56:47;;;;;;;30.90;6.50;;;15.90;99.90;;;;;;4369115;28;657694;-68
2023/10/21 02:59:35;;;;;;;27.17;6.70;;;15.90;99.90;;;;;;4353155;28;658703;-68
2023/10/21 03:02:22;;;;;;;28.10;5.77;;;15.80;99.90;;;;;;4369257;28;658001;-67
2023/10/21 03:05:11;;;;;;;30.63;6.10;;;15.70;99.90;;;;;;4381258;28;658089;-68
2023/10/21 03:07:58;;;;;;;25.95;5.15;;;15.70;99.90;;;;;;4352351;28;657499;-68
2023/10/21 03:10:45;;;;;;;28.27;6.03;;;15.70;99.90;;;;;;4375358;28;658356;-68
2023/10/21 03:13:33;;;;;;;35.67;6.47;;;15.70;99.90;;;;;;4355486;28;657685;-68
2023/10/21 03:16:20;;;;;;;32.77;6.57;;;15.60;99.90;;;;;;4371110;28;658526;-68
2023/10/21 03:19:07;;;;;;;38.80;6.77;;;15.70;99.90;;;;;;4369009;28;658311;-67
2023/10/21 03:21:56;;;;;;;27.65;6.93;;;15.70;99.90;;;;;;4378568;28;658876;-68
2023/10/21 03:24:44;;;;;;;29.63;6.97;;;15.60;99.90;;;;;;4353510;28;657658;-67
2023/10/21 03:27:32;;;;;;;34.17;7.43;;;15.70;99.90;;;;;;4374265;28;658558;-68
2023/10/21 03:30:19;;;;;;;29.17;6.90;;;15.70;99.90;;;;;;4358612;28;658461;-67
2023/10/21 03:33:07;;;;;;;29.57;7.10;;;15.70;99.90;;;;;;4374795;28;657193;-67
2023/10/21 03:35:54;;;;;;;25.37;6.33;;;15.60;99.90;;;;;;4354626;28;658050;-67
2023/10/21 03:38:43;;;;;;;39.77;7.80;;;15.50;99.90;;;;;;4374290;28;657177;-68
2023/10/21 03:41:30;;;;;;;29.27;6.03;;;15.50;99.90;;;;;;4345655;28;658475;-68
2023/10/21 03:44:17;;;;;;;27.00;6.10;;;15.50;99.90;;;;;;4356070;28;657516;-68
2023/10/21 03:47:05;;;;;;;36.63;7.10;;;15.60;99.90;;;;;;4378733;28;657672;-68
2023/10/21 03:49:53;;;;;;;26.90;6.40;;;15.70;99.90;;;;;;4355615;28;657734;-67
2023/10/21 03:52:40;;;;;;;31.60;6.50;;;15.70;99.90;;;;;;4367501;28;658926;-67
2023/10/21 03:55:29;;;;;;;29.93;8.43;;;15.50;99.90;;;;;;4373281;28;658345;-68
2023/10/21 03:58:16;;;;;;;32.37;7.40;;;15.50;99.90;;;;;;4376368;28;658548;-68
2023/10/21 04:01:03;;;;;;;30.50;7.50;;;15.40;99.90;;;;;;4354724;28;657482;-67
2023/10/21 04:03:51;;;;;;;37.90;7.10;;;15.30;99.90;;;;;;4369601;28;657742;-67
2023/10/21 04:06:39;;;;;;;32.50;7.43;;;15.20;99.90;;;;;;4353810;28;658691;-68
2023/10/21 04:09:26;;;;;;;27.35;6.53;;;15.20;99.90;;;;;;4366507;28;657621;-68
2023/10/21 04:12:15;;;;;;;38.67;6.93;;;15.30;99.90;;;;;;4356650;28;657852;-68
2023/10/21 04:15:03;;;;;;;33.60;6.20;;;15.40;99.90;;;;;;4358188;28;657568;-68
2023/10/21 04:17:50;;;;;;;35.67;6.23;;;15.50;99.90;;;;;;4378171;28;659055;-68
2023/10/21 04:20:38;;;;;;;26.07;6.20;;;15.50;99.90;;;;;;4351379;28;657686;-67
2023/10/21 04:23:25;;;;;;;39.33;6.73;;;15.50;99.90;;;;;;4374810;28;658468;-68
2023/10/21 04:26:12;;;;;;;29.43;5.90;;;15.60;99.90;;;;;;4360732;28;657615;-67
2023/10/21 04:29:01;;;;;;;40.03;7.07;;;15.60;99.90;;;;;;4373052;28;658604;-68
2023/10/21 04:31:48;;;;;;;27.20;6.43;;;15.60;99.90;;;;;;4357743;28;657428;-68
2023/10/21 04:34:35;;;;;;;27.27;6.17;;;15.50;99.90;;;;;;4374725;28;658365;-68
2023/10/21 04:37:23;;;;;;;37.33;6.33;;;15.50;99.90;;;;;;4352084;28;657602;-68
2023/10/21 04:40:11;;;;;;;36.17;7.40;;;15.50;99.90;;;;;;4374101;28;658659;-68
2023/10/21 04:42:58;;;;;;;35.38;6.72;;;15.60;99.90;;;;;;4354124;28;657485;-68
2023/10/21 04:45:47;;;;;;;24.50;5.83;;;15.60;99.90;;;;;;4369996;28;658327;-68
2023/10/21 04:48:35;;;;;;;29.47;6.10;;;15.50;99.90;;;;;;4352933;28;658699;-68
2023/10/21 04:51:23;;;;;;;24.50;5.93;;;15.60;99.90;;;;;;4363082;28;657801;-68
2023/10/21 04:54:10;;;;;;;24.73;6.17;;;15.80;99.90;;;;;;4370416;28;657891;-68
2023/10/21 04:56:57;;;;;;;30.57;5.87;;;15.80;99.90;;;;;;4354693;28;658677;-68
2023/10/21 04:59:45;;;;;;;32.40;5.83;;;15.80;99.90;;;;;;4374040;28;658044;-68
2023/10/21 05:02:34;;;;;;;35.27;6.57;;;15.80;99.90;;;;;;4355584;28;657500;-68
2023/10/21 05:05:21;;;;;;;30.63;5.97;;;15.80;99.90;;;;;;4376523;28;657491;-68
2023/10/21 05:08:08;;;;;;;38.38;6.65;;;15.80;99.90;;;;;;4352745;28;659947;-68
2023/10/21 05:10:55;;;;;;;28.07;6.67;;;15.70;99.90;;;;;;4386783;28;658316;-68
2023/10/21 05:13:43;;;;;;;28.03;6.30;;;15.60;99.90;;;;;;4359650;28;658027;-67
2023/10/21 05:16:31;;;;;;;38.97;7.00;;;15.60;99.90;;;;;;4380148;28;658283;-68
2023/10/21 05:19:20;;;;;;;38.70;6.13;;;15.70;99.90;;;;;;4358396;28;657502;-68
2023/10/21 05:22:07;;;;;;;37.00;5.37;;;15.90;99.90;;;;;;4380905;28;657205;-68
2023/10/21 05:24:55;;;;;;;27.03;4.87;;;16.30;99.90;;;;;;4375675;28;658172;-67
2023/10/21 05:27:42;;;;;;;19.20;4.63;;;17.30;99.90;;;;;;4359732;28;657728;-67
2023/10/21 05:30:30;;;;;;;27.03;5.07;;;17.80;99.90;;;;;;4380500;28;658056;-68
2023/10/21 05:33:17;;;;;;;31.13;5.53;;;18.00;99.90;;;;;;4385828;28;656995;-68
2023/10/21 05:36:06;;;;;;;28.00;5.00;;;18.00;99.90;;;;;;4358430;28;659470;-68
2023/10/21 05:38:53;;;;;;;23.80;4.97;;;18.10;99.90;;;;;;4359549;28;657938;-67
2023/10/21 05:41:41;;;;;;;22.60;5.23;;;18.40;99.90;;;;;;4376846;28;658326;-67
2023/10/21 05:44:28;;;;;;;26.57;5.33;;;18.20;99.90;;;;;;4353978;28;657481;-67
2023/10/21 05:47:15;;;;;;;24.63;4.90;;;18.10;99.90;;;;;;4376369;28;657715;-68
2023/10/21 05:50:03;;;;;;;21.67;3.97;;;18.30;99.90;;;;;;4360089;28;658797;-67
2023/10/21 05:52:52;;;;;;;26.53;4.93;;;18.30;99.90;;;;;;4379280;28;657851;-67
2023/10/21 05:55:43;;;;;;;19.30;4.63;;;18.10;99.90;;;;;;4361926;28;658438;-67
2023/10/21 05:58:30;;;;;;;24.27;5.30;;;18.00;99.90;;;;;;4352743;28;658615;-67
2023/10/21 06:01:17;;;;;;;25.47;5.10;;;17.80;99.90;;;;;;4374705;28;657625;-67
2023/10/21 06:04:05;;;;;;;27.33;5.43;;;17.90;99.90;;;;;;4383979;28;657371;-68
2023/10/21 06:06:54;;;;;;;28.23;5.22;;;18.00;99.90;;;;;;4359996;28;657562;-67
2023/10/21 06:09:42;;;;;;;25.87;5.00;;;18.00;99.90;;;;;;4375717;28;657120;-68
2023/10/21 06:12:30;;;;;;;26.40;5.50;;;18.00;99.90;;;;;;4354742;28;658371;-67
2023/10/21 06:15:17;;;;;;;27.40;5.53;;;17.90;99.90;;;;;;4354526;28;657484;-67
2023/10/21 06:18:06;;;;;;;26.57;5.90;;;17.90;99.90;;;;;;4386466;28;658342;-68
2023/10/21 06:20:54;;;;;;;25.60;4.83;;;17.80;99.90;;;;;;4354566;28;657779;-67
2023/10/21 06:23:41;;;;;;;25.47;5.20;;;17.80;99.90;;;;;;4374424;28;658732;-67
2023/10/21 06:26:31;;;;;;;28.80;5.57;;;17.70;99.90;;;;;;4351315;28;657849;-67
2023/10/21 06:29:18;;;;;;;24.67;5.87;;;17.80;99.90;;;;;;4359087;28;658172;-68
2023/10/21 06:32:08;;;;;;;28.07;5.53;;;17.80;99.90;;;;;;4377250;28;659418;-67
2023/10/21 06:34:55;;;;;;;21.90;5.80;;;17.80;99.90;;;;;;4352995;28;657973;-68
2023/10/21 06:37:43;;;;;;;29.83;6.40;;;17.80;99.90;;;;;;4356398;28;657857;-67
2023/10/21 06:40:30;;;;;;;27.80;5.80;;;17.70;99.90;;;;;;4378637;28;658013;-67
2023/10/21 06:43:19;;;;;;;29.27;5.23;;;17.80;99.90;;;;;;4361909;28;658118;-68
2023/10/21 06:46:06;;;;;;;21.70;5.10;;;17.70;99.90;;;;;;4378097;28;658835;-67
2023/10/21 06:48:54;;;;;;;32.10;6.30;;;17.80;99.90;;;;;;4356876;28;657738;-67
2023/10/21 06:51:42;;;;;;;33.87;5.87;;;17.80;99.90;;;;;;4372945;28;657923;-67
2023/10/21 06:54:29;;;;;;;26.50;5.80;;;17.80;99.90;;;;;;4357943;28;658351;-67
2023/10/21 06:57:20;;;;;;;26.07;6.33;;;17.70;99.90;;;;;;4377556;28;658257;-67
2023/10/21 07:00:12;;;;;;;31.33;6.17;;;17.90;99.90;;;;;;4335842;28;658568;-67
2023/10/21 07:02:59;;;;;;;29.63;6.23;;;18.10;99.90;;;;;;4356898;28;657525;-67
2023/10/21 07:05:46;;;;;;;26.13;5.70;;;18.30;99.90;;;;;;4375510;28;657646;-67
2023/10/21 07:08:35;;;;;;;31.90;5.60;;;18.30;99.90;;;;;;4353514;28;657449;-68
2023/10/21 07:11:23;;;;;;;25.70;6.37;;;18.50;99.90;;;;;;4357716;28;657600;-67
2023/10/21 07:14:12;;;;;;;33.83;5.50;;;18.60;99.90;;;;;;4378970;28;658116;-67
2023/10/21 07:17:01;;;;;;;30.83;5.97;;;18.50;99.90;;;;;;4354458;28;657746;-68
2023/10/21 07:19:49;;;;;;;33.50;5.43;;;18.60;99.90;;;;;;4357730;28;657628;-67
2023/10/21 07:22:37;;;;;;;23.80;5.93;;;18.60;99.90;;;;;;4374707;28;657201;-67
2023/10/21 07:25:24;;;;;;;19.63;5.40;;;18.70;99.90;;;;;;4358652;28;657670;-67
2023/10/21 07:28:11;;;;;;;16.13;4.50;;;18.70;99.90;;;;;;4382387;28;657506;-67
2023/10/21 07:31:00;;;;;;;24.47;4.47;;;18.80;99.90;;;;;;4359334;28;657574;-67
2023/10/21 07:33:51;;;;;;;27.30;4.90;;;18.90;99.90;;;;;;4363117;28;657708;-67
2023/10/21 07:36:38;;;;;;;19.87;4.70;;;18.90;99.90;;;;;;4354893;28;657813;-67
2023/10/21 07:39:26;;;;;;;19.60;4.50;;;18.90;99.90;;;;;;4375879;28;658893;-67
2023/10/21 07:42:14;;;;;;;21.93;5.13;;;18.90;99.90;;;;;;4357243;28;657900;-67
2023/10/21 07:45:03;;;;;;;25.70;4.80;;;18.80;99.90;;;;;;4373936;28;657154;-67
2023/10/21 07:47:50;;;;;;;27.37;5.40;;;18.80;99.90;;;;;;4353124;28;657943;-67
2023/10/21 07:50:39;;;;;;;29.83;5.80;;;18.70;99.90;;;;;;4356133;28;657775;-67
2023/10/21 07:53:26;;;;;;;25.47;4.17;;;18.60;99.90;;;;;;4372123;28;658603;-68
2023/10/21 07:56:13;;;;;;;22.47;4.20;;;18.60;99.90;;;;;;4363329;28;657571;-67
2023/10/21 07:59:01;;;;;;;20.50;4.03;;;18.60;99.90;;;;;;4373734;28;658994;-68
2023/10/21 08:01:48;;;;;;;19.90;4.27;;;18.80;99.90;;;;;;4363751;28;657241;-67
2023/10/21 08:04:35;;;;;;;19.50;4.00;;;18.90;99.90;;;;;;4377481;28;658093;-67
2023/10/21 08:07:24;;;;;;;26.60;4.57;;;19.00;99.90;;;;;;4361587;28;657792;-67
2023/10/21 08:10:11;;;;;;;18.53;4.53;;;18.90;99.90;;;;;;4377445;28;658129;-67
2023/10/21 08:12:58;;;;;;;23.23;5.07;;;18.90;99.90;;;;;;4356972;28;657474;-68
2023/10/21 08:15:46;;;;;;;21.10;4.37;;;19.00;99.90;;;;;;4380019;28;658489;-67
2023/10/21 08:18:33;;;;;;;21.90;4.80;;;19.10;99.90;;;;;;4357272;28;657352;-67
2023/10/21 08:21:21;;;;;;;23.80;5.40;;;19.20;99.90;;;;;;4379150;28;660287;-67
2023/10/21 08:24:10;;;;;;;14.40;4.10;;;19.20;99.90;;;;;;4351572;28;658232;-68
2023/10/21 08:26:57;;;;;;;23.63;5.23;;;19.30;99.90;;;;;;4373397;28;657734;-67
2023/10/21 08:29:45;;;;;;;15.73;4.20;;;19.30;99.90;;;;;;4351204;28;658867;-67
2023/10/21 08:32:32;;;;;;;32.90;5.27;;;19.50;99.90;;;;;;4353519;28;658536;-67
2023/10/21 08:35:20;;;;;;;19.17;4.87;;;20.00;99.90;;;;;;4369706;28;658590;-68
2023/10/21 08:38:07;;;;;;;30.47;5.43;;;20.20;99.90;;;;;;4365890;28;657630;-67
2023/10/21 08:40:56;;;;;;;17.10;5.43;;;20.30;99.90;;;;;;4372706;28;658437;-67
2023/10/21 08:43:46;;;;;;;27.13;5.20;;;20.10;99.90;;;;;;4342097;28;657524;-67
2023/10/21 08:46:34;;;;;;;20.90;5.17;;;19.90;99.90;;;;;;4345352;28;657613;-67
2023/10/21 08:49:21;;;;;;;18.33;5.13;;;20.30;99.90;;;;;;4363751;28;657256;-67
2023/10/21 08:52:10;;;;;;;20.30;4.60;;;20.80;99.90;;;;;;4350777;28;657735;-68
2023/10/21 08:54:57;;;;;;;14.23;4.20;;;21.20;99.90;;;;;;4372487;28;657379;-67
2023/10/21 08:57:48;;;;;;;16.50;4.30;;;21.20;99.90;;;;;;4343438;28;657926;-67
2023/10/21 09:00:35;;;;;;;17.40;3.70;;;21.20;99.90;;;;;;4347343;28;658516;-67
2023/10/21 09:03:23;;;;;;;12.57;3.60;;;20.90;99.90;;;;;;4347479;28;658185;-67
2023/10/21 09:06:11;;;;;;;24.87;3.90;;;20.50;99.90;;;;;;4370635;28;658584;-67
2023/10/21 09:08:58;;;;;;;20.57;4.00;;;20.60;99.90;;;;;;4345066;28;657366;-67
2023/10/21 09:11:45;;;;;;;14.13;3.00;;;20.60;99.90;;;;;;4366942;28;658409;-67
2023/10/21 09:14:50;;;;;;;7.30;1.20;;;20.30;99.90;;;;;;4346173;28;659209;-66
2023/10/21 09:17:39;;;;;;;14.13;2.67;;;20.30;99.90;;;;;;4339308;28;657266;-66
2023/10/21 09:20:26;;;;;;;13.63;2.60;;;20.50;99.90;;;;;;4367833;28;657761;-66
2023/10/21 09:23:13;;;;;;;19.93;2.43;;;20.70;99.90;;;;;;4350034;28;657190;-66
2023/10/21 09:26:00;;;;;;;7.53;1.40;;;20.90;99.90;;;;;;4368584;28;658583;-67
2023/10/21 09:28:47;;;;;;;9.73;1.97;;;21.00;99.90;;;;;;4348442;28;656942;-67
2023/10/21 09:31:51;;;;;;;8.40;2.30;;;20.90;99.90;;;;;;4369303;28;658077;-67
2023/10/21 09:34:40;;;;;;;11.90;2.63;;;21.10;99.90;;;;;;4345458;28;657066;-67
2023/10/21 09:37:29;;;;;;;9.00;2.93;;;21.10;99.90;;;;;;4355570;28;657660;-67
2023/10/21 09:40:16;;;;;;;11.73;2.60;;;21.20;99.90;;;;;;4365522;28;656500;-67
2023/10/21 09:43:04;;;;;;;9.40;3.03;;;21.20;99.90;;;;;;4343580;28;657066;-67
2023/10/21 09:45:51;;;;;;;12.40;3.37;;;20.50;99.90;;;;;;4372988;28;658787;-67
2023/10/21 09:48:42;;;;;;;15.90;3.60;;;20.80;99.90;;;;;;4348979;28;657272;-67
2023/10/21 09:51:29;;;;;;;15.37;3.00;;;20.90;99.90;;;;;;4347741;28;658506;-67
2023/10/21 09:54:17;;;;;;;14.07;3.43;;;21.30;99.90;;;;;;4360208;28;657406;-67
2023/10/21 09:57:04;;;;;;;15.47;3.57;;;21.40;99.90;;;;;;4355131;28;658317;-67
2023/10/21 09:59:51;;;;;;;21.57;3.57;;;21.20;99.90;;;;;;4369443;28;658357;-67
2023/10/21 10:02:40;;;;;;;17.00;2.63;;;21.10;99.90;;;;;;4347788;28;657761;-67
2023/10/21 10:05:29;;;;;;;11.60;3.60;;;20.90;99.90;;;;;;4368655;28;658018;-67
2023/10/21 10:08:17;;;;;;;20.73;3.87;;;20.90;99.90;;;;;;4370369;28;657406;-67
2023/10/21 10:11:08;;;;;;;10.80;2.40;;;20.70;99.90;;;;;;4353475;28;657929;-67
2023/10/21 10:13:55;;;;;;;14.60;3.00;;;20.70;99.90;;;;;;4348585;28;658887;-67
2023/10/21 10:16:44;;;;;;;12.73;2.90;;;21.10;99.90;;;;;;4356742;28;657718;-67
2023/10/21 10:19:38;;;;;;;11.03;2.80;;;21.30;99.90;;;;;;4367841;28;658191;-67
2023/10/21 10:22:31;;;;;;;9.37;2.70;;;21.30;99.90;;;;;;4345734;28;657245;-67
2023/10/21 10:25:25;;;;;;;16.95;3.05;;;21.30;99.90;;;;;;4321792;28;657775;-67
2023/10/21 10:28:17;;;;;;;16.60;2.80;;;21.40;99.90;;;;;;4340386;28;658180;-67
2023/10/21 10:31:04;;;;;;;14.13;2.60;;;21.90;99.90;;;;;;4351739;28;657914;-67
2023/10/21 10:33:51;;;;;;;18.97;2.53;;;22.70;99.90;;;;;;4369169;28;658034;-67
2023/10/21 10:36:39;;;;;;;9.70;2.30;;;23.10;99.90;;;;;;4353948;28;657506;-67
2023/10/21 10:39:39;;;;;;;9.18;2.80;;;22.90;99.90;;;;;;4367954;28;657486;-66
2023/10/21 10:42:28;;;;;;;15.20;2.67;;;23.20;99.90;;;;;;4348510;28;656954;-67
2023/10/21 10:45:16;;;;;;;14.15;2.53;;;23.90;99.90;;;;;;4345869;28;658168;-67
2023/10/21 10:48:04;;;;;;;10.25;2.63;;;24.10;99.90;;;;;;4351817;28;657877;-67
2023/10/21 10:50:51;;;;;;;11.10;1.40;;;23.70;99.90;;;;;;4370583;28;657739;-67
2023/10/21 10:53:39;;;;;;;12.63;2.30;;;23.20;99.90;;;;;;4346904;28;659069;-67
2023/10/21 10:56:39;;;;;;;7.47;2.45;;;23.20;99.90;;;;;;4366177;28;658516;-67
2023/10/21 10:59:26;;;;;;;10.57;2.05;;;23.50;99.90;;;;;;4345405;28;657261;-67
2023/10/21 11:02:14;;;;;;;9.48;2.42;;;23.20;99.90;;;;;;4349458;28;657923;-67
2023/10/21 11:05:01;;;;;;;11.38;2.40;;;23.00;99.90;;;;;;4372215;28;657173;-67
2023/10/21 11:07:49;;;;;;;12.05;1.88;;;23.00;99.90;;;;;;4347835;28;657237;-67
2023/10/21 11:10:36;;;;;;;8.93;2.17;;;23.00;99.90;;;;;;4369563;28;659150;-66
2023/10/21 11:13:25;;;;;;;8.53;2.00;;;22.70;99.90;;;;;;4347516;28;656515;-67
2023/10/21 11:16:12;;;;;;;11.93;1.67;;;22.20;99.90;;;;;;4368199;28;656924;-67
2023/10/21 11:19:00;;;;;;;8.83;1.70;;;22.10;99.90;;;;;;4373230;28;657626;-67
2023/10/21 11:21:49;;;;;;;11.33;2.07;;;21.60;99.90;;;;;;4348237;28;656565;-67
2023/10/21 11:24:36;;;;;;;10.07;1.70;;;21.40;99.90;;;;;;4371693;28;657382;-67
2023/10/21 11:27:23;;;;;;;8.70;2.00;;;21.30;99.90;;;;;;4343611;28;658025;-67
2023/10/21 11:30:12;;;;;;;10.60;1.93;;;21.50;99.90;;;;;;4366653;28;657060;-67
2023/10/21 11:32:59;;;;;;;13.37;2.23;;;22.30;99.90;;;;;;4344103;28;659389;-67
2023/10/21 11:35:47;;;;;;;9.03;1.77;;;22.20;99.90;;;;;;4364881;28;658688;-67
2023/10/21 11:38:34;;;;;;;10.43;1.80;;;22.20;99.90;;;;;;4347869;28;656415;-67
2023/10/21 11:41:21;;;;;;;8.17;1.57;;;22.50;99.90;;;;;;4368411;28;658397;-67
2023/10/21 11:44:09;;;;;;;6.37;1.80;;;22.40;99.90;;;;;;4349387;28;658410;-67
2023/10/21 11:47:03;;;;;;;5.97;1.70;;;22.80;99.90;;;;;;4368079;28;656004;-66
2023/10/21 11:49:52;;;;;;;5.57;1.45;;;22.80;99.90;;;;;;4346114;28;656572;-67
2023/10/21 11:52:42;;;;;;;8.65;0.90;;;23.30;99.90;;;;;;4348243;28;657064;-66
2023/10/21 11:56:01;;;;;;;6.80;1.80;;;23.20;99.90;;;;;;4346343;28;657241;-66
2023/10/21 12:03:20;;;;;;;8.38;1.90;;;23.40;99.90;;;;;;4344067;28;656615;-67
2023/10/21 12:18:34;;;;;;;6.82;1.52;;;24.20;97.10;;;;;;4329730;28;657442;-67
2023/10/21 12:24:59;;;;;;;4.63;1.33;;;23.10;98.50;;;;;;4324502;28;657013;-66
2023/10/21 12:34:34;;;;;;;4.70;1.42;;;23.90;90.20;;;;;;4315398;28;656758;-66
2023/10/21 12:37:28;;;;;;;15.60;2.50;;;23.80;91.80;;;;;;4347343;28;656442;-67
2023/10/21 12:40:32;;;;;;;7.40;2.25;;;23.70;97.50;;;;;;4342694;28;658464;-67
2023/10/21 12:43:23;;;;;;;9.40;2.17;;;24.00;96.20;;;;;;4349668;28;657363;-66
2023/10/21 12:46:18;;;;;;;11.38;2.17;;;23.80;93.60;;;;;;4344561;28;657724;-66
2023/10/21 12:49:12;;;;;;;10.13;2.08;;;23.90;96.00;;;;;;4345512;28;658095;-66
2023/10/21 12:51:59;;;;;;;5.70;1.80;;;24.30;84.10;;;;;;4322614;28;657897;-66
2023/10/21 12:54:47;;;;;;;8.00;1.88;;;24.80;79.70;;;;;;4369096;28;655980;-66
2023/10/21 12:57:34;;;;;;;7.40;2.53;;;25.40;73.60;;;;;;4348363;28;657343;-66
2023/10/21 13:00:22;;;;;;;13.65;2.42;;;25.10;76.30;;;;;;4368328;28;656219;-66
2023/10/21 13:03:10;;;;;;;14.77;2.60;;;25.30;74.80;;;;;;4343571;28;659070;-67
2023/10/21 13:05:59;;;;;;;7.75;2.30;;;25.30;74.50;;;;;;4345769;28;657545;-66
2023/10/21 13:08:46;;;;;;;3.67;1.45;;;25.40;75.70;;;;;;4369889;28;656183;-66
2023/10/21 13:11:33;;;;;;;10.10;2.45;;;25.20;74.10;;;;;;4350889;28;657594;-66
2023/10/21 13:14:21;;;;;;;7.40;2.42;;;24.90;76.90;;;;;;4368154;28;658464;-67
2023/10/21 13:17:09;;;;;;;7.43;2.35;;;25.50;72.60;;;;;;4342905;28;657358;-66
2023/10/21 13:19:56;;;;;;;11.38;2.60;;;26.30;69.80;;;;;;4366767;28;657038;-66
2023/10/21 13:22:45;;;;;;;12.77;1.83;;;26.00;67.60;;;;;;4342610;28;658307;-67
2023/10/21 13:25:33;;;;;;;18.75;2.75;;;24.60;76.20;;;;;;4356018;28;657519;-66
2023/10/21 13:28:21;;;;;;;10.90;2.40;;;25.00;85.20;;;;;;4366878;28;657916;-67
2023/10/21 13:31:09;;;;;;;10.55;2.92;;;24.90;73.80;;;;;;4350077;28;659134;-66
2023/10/21 13:33:56;;;;;;;9.23;2.83;;;24.90;75.80;;;;;;4370757;28;658344;-66
2023/10/21 13:36:43;;;;;;;13.40;2.85;;;24.60;87.50;;;;;;4351060;28;656951;-66
2023/10/21 13:39:32;;;;;;;12.82;2.85;;;23.40;97.30;;;;;;4376561;28;658449;-66
2023/10/21 13:42:19;;;;;;;10.68;2.70;;;23.40;96.90;;;;;;4351347;28;659352;-66
2023/10/21 13:45:13;;;;;;;15.82;2.40;;;23.40;99.90;;;;;;4375690;28;658360;-66
2023/10/21 13:48:06;;;;;;;11.50;2.40;;;22.90;99.90;;;;;;4346434;28;658533;-67
2023/10/21 13:50:53;;;;;;;10.63;2.47;;;22.70;99.90;;;;;;4351682;28;658027;-67
2023/10/21 13:53:40;;;;;;;10.00;3.08;;;22.90;99.90;;;;;;4372928;28;658993;-66
2023/10/21 13:56:29;;;;;;;11.93;2.75;;;23.20;99.90;;;;;;4355030;28;657766;-66
2023/10/21 13:59:18;;;;;;;12.35;2.75;;;22.30;99.90;;;;;;4371317;28;657596;-67
2023/10/21 14:02:08;;;;;;;15.80;3.22;;;22.30;99.90;;;;;;4354979;28;658479;-67
2023/10/21 14:04:55;;;;;;;17.83;3.30;;;22.70;99.90;;;;;;4357610;28;658079;-67
2023/10/21 14:07:43;;;;;;;12.00;3.00;;;22.60;99.90;;;;;;4351053;28;657759;-66
2023/10/21 14:10:32;;;;;;;15.47;3.27;;;22.40;99.90;;;;;;4376969;28;658454;-67
2023/10/21 14:13:23;;;;;;;18.42;3.00;;;22.50;99.90;;;;;;4360218;28;658155;-66
2023/10/21 14:16:11;;;;;;;8.15;2.60;;;22.50;99.90;;;;;;4350353;28;657872;-67
2023/10/21 14:18:59;;;;;;;13.82;2.97;;;22.40;99.90;;;;;;4357526;28;658448;-67
2023/10/21 14:21:46;;;;;;;11.10;3.17;;;21.90;99.90;;;;;;4374825;28;658098;-67
2023/10/21 14:24:34;;;;;;;10.80;2.90;;;22.00;99.90;;;;;;4361654;28;657762;-67
2023/10/21 14:27:22;;;;;;;9.80;2.65;;;22.10;99.90;;;;;;4380631;28;658479;-67
2023/10/21 14:30:11;;;;;;;11.68;2.65;;;22.10;99.90;;;;;;4362552;28;657120;-67
2023/10/21 14:32:58;;;;;;;11.93;2.63;;;22.20;99.90;;;;;;4360694;28;657535;-67
2023/10/21 14:35:46;;;;;;;12.77;2.85;;;22.40;99.90;;;;;;4380011;28;659056;-67
2023/10/21 14:38:34;;;;;;;12.60;2.63;;;22.50;99.90;;;;;;4346343;28;657548;-67
2023/10/21 14:41:21;;;;;;;19.80;2.90;;;22.90;99.90;;;;;;4373779;28;657495;-67